Time;durP1;ratioP1;P1;durP2;ratioP2;P2;SDS_P1;SDS_P2;PMS_P1;PMS_P2;Temp;Humidity;BMP_temperature;BMP_pressure;BME280_temperature;BME280_humidity;BME280_pressure;Samples;Min_cycle;Max_cycle;Signal;HPM_P1;HPM_P2
2021/05/20 00:01:38;;;;;;;16.42;9.38;;;;;;;20.43;46.59;98592.63;5054711;28;20028;-47
2021/05/20 00:04:05;;;;;;;12.27;9.55;;;;;;;20.48;46.56;98600.13;5064286;28;20033;-49
2021/05/20 00:06:30;;;;;;;13.75;10.20;;;;;;;20.43;46.91;98591.81;5061849;28;20075;-48
2021/05/20 00:08:56;;;;;;;23.17;11.32;;;;;;;20.46;46.99;98575.88;5056963;28;20456;-48
2021/05/20 00:11:21;;;;;;;15.05;9.27;;;;;;;20.36;46.79;98570.91;5067944;28;20086;-45
2021/05/20 00:13:47;;;;;;;12.07;8.95;;;;;;;20.45;46.87;98595.94;5055742;28;20448;-58
2021/05/20 00:16:12;;;;;;;14.32;8.43;;;;;;;20.47;46.53;98599.28;5066854;28;20036;-49
2021/05/20 00:18:38;;;;;;;16.63;8.10;;;;;;;20.45;46.43;98576.91;5051390;28;20043;-47
2021/05/20 00:21:04;;;;;;;11.40;7.97;;;;;;;20.22;46.42;98529.41;5050739;28;20041;-53
2021/05/20 00:23:30;;;;;;;13.25;8.40;;;;;;;20.55;46.28;98587.31;5051202;28;20491;-46
2021/05/20 00:25:55;;;;;;;11.23;8.20;;;;;;;20.45;46.67;98552.44;5056951;28;20035;-52
2021/05/20 00:28:21;;;;;;;14.13;8.50;;;;;;;20.41;46.67;98562.09;5061377;28;20025;-53
2021/05/20 00:30:46;;;;;;;13.35;8.50;;;;;;;20.49;46.49;98569.16;5064136;28;20037;-56
2021/05/20 00:33:12;;;;;;;15.02;8.50;;;;;;;20.44;46.74;98574.44;5054953;28;20041;-46
2021/05/20 00:35:38;;;;;;;12.98;7.97;;;;;;;20.36;46.84;98578.25;5067021;28;20391;-45
2021/05/20 00:38:08;;;;;;;15.50;8.60;;;;;;;20.47;46.94;98598.47;5057699;28;20032;-49
2021/05/20 00:40:34;;;;;;;12.90;8.35;;;;;;;20.39;47.05;98599.56;5068532;28;20056;-50
2021/05/20 00:42:59;;;;;;;14.15;8.50;;;;;;;20.25;47.12;98573.50;5055939;28;20047;-48
2021/05/20 00:45:25;;;;;;;14.88;8.43;;;;;;;20.11;47.05;98561.88;5066643;28;20048;-48
2021/05/20 00:47:50;;;;;;;13.90;9.10;;;;;;;20.43;47.21;98619.81;5055761;28;20039;-46
2021/05/20 00:50:16;;;;;;;11.98;8.40;;;;;;;20.34;47.44;98616.50;5061921;28;20037;-47
2021/05/20 00:52:41;;;;;;;11.32;8.68;;;;;;;20.20;47.72;98604.88;5062510;28;20060;-46
2021/05/20 00:55:08;;;;;;;10.98;9.00;;;;;;;20.16;47.92;98598.22;5054330;28;20037;-49
2021/05/20 00:57:35;;;;;;;11.27;8.20;;;;;;;20.14;47.91;98611.19;5066495;28;20040;-46
2021/05/20 01:00:09;;;;;;;11.82;9.77;;;;;;;20.17;47.90;98623.50;5056894;28;20040;-48
2021/05/20 01:02:37;;;;;;;14.82;8.93;;;;;;;20.10;47.91;98622.69;5069009;28;20024;-48
2021/05/20 01:05:08;;;;;;;11.68;8.80;;;;;;;20.11;48.18;98611.63;5055056;28;20482;-48
2021/05/20 01:07:34;;;;;;;11.02;7.88;;;;;;;20.11;48.23;98627.91;5052878;28;20110;-47
2021/05/20 01:10:00;;;;;;;9.45;8.10;;;;;;;20.06;48.48;98625.03;5063361;28;20542;-47
2021/05/20 01:12:27;;;;;;;10.88;7.70;;;;;;;19.98;48.78;98645.09;5060669;28;20082;-46
2021/05/20 01:14:52;;;;;;;11.82;7.47;;;;;;;20.00;48.98;98653.03;5056665;28;20131;-46
2021/05/20 01:17:18;;;;;;;9.55;7.70;;;;;;;19.86;49.31;98644.06;5065989;28;20358;-45
2021/05/20 01:19:47;;;;;;;10.27;7.68;;;;;;;19.88;49.63;98666.41;5054449;28;20029;-49
2021/05/20 01:22:14;;;;;;;9.45;7.13;;;;;;;19.84;49.65;98681.47;5062102;28;20029;-50
2021/05/20 01:24:40;;;;;;;9.68;7.90;;;;;;;19.84;50.01;98695.88;5061623;28;20378;-46
2021/05/20 01:27:07;;;;;;;8.85;7.70;;;;;;;19.69;50.42;98687.13;5054333;28;20099;-46
2021/05/20 01:29:33;;;;;;;9.60;7.50;;;;;;;19.54;51.07;98636.63;5066143;28;20043;-45
2021/05/20 01:31:59;;;;;;;8.48;6.78;;;;;;;19.40;51.32;98610.56;5056662;28;20050;-48
2021/05/20 01:34:25;;;;;;;8.23;7.18;;;;;;;19.32;51.63;98607.03;5059922;28;20347;-48
2021/05/20 01:36:51;;;;;;;8.35;7.55;;;;;;;19.33;51.75;98615.97;5063370;28;20040;-49
2021/05/20 01:39:16;;;;;;;8.95;7.90;;;;;;;19.17;52.07;98595.56;5053169;28;20033;-47
2021/05/20 01:41:42;;;;;;;10.43;7.22;;;;;;;19.25;52.38;98608.88;5066452;28;20402;-45
2021/05/20 01:44:07;;;;;;;8.65;6.18;;;;;;;19.22;51.82;98582.19;5057157;28;20502;-49
2021/05/20 01:46:33;;;;;;;6.97;6.32;;;;;;;19.16;51.62;98574.91;5058610;28;20055;-47
2021/05/20 01:48:58;;;;;;;6.97;5.82;;;;;;;19.24;51.54;98606.41;5063981;28;20099;-48
2021/05/20 01:51:24;;;;;;;5.95;5.35;;;;;;;19.01;51.63;98556.97;5052935;28;20041;-48
2021/05/20 01:53:56;;;;;;;7.57;5.45;;;;;;;19.24;51.70;98595.56;5064609;28;20555;-44
2021/05/20 01:56:24;;;;;;;7.60;5.57;;;;;;;18.89;51.46;98539.63;5057616;28;20402;-47
2021/05/20 01:58:50;;;;;;;5.50;4.95;;;;;;;18.86;51.67;98535.44;5056118;28;20029;-47
2021/05/20 02:01:17;;;;;;;6.85;5.40;;;;;;;19.26;51.69;98591.56;5065120;28;20039;-52
2021/05/20 02:03:42;;;;;;;5.97;5.13;;;;;;;19.28;51.57;98594.09;5065683;28;20048;-48
2021/05/20 02:06:09;;;;;;;6.80;5.47;;;;;;;19.31;51.61;98618.94;5056543;28;20032;-45
2021/05/20 02:08:36;;;;;;;5.70;4.88;;;;;;;19.24;51.46;98599.09;5056776;28;20028;-47
2021/05/20 02:11:03;;;;;;;5.78;5.18;;;;;;;19.48;51.26;98613.88;5062460;28;20445;-44
2021/05/20 02:13:29;;;;;;;7.57;5.53;;;;;;;19.56;51.20;98601.13;5052091;28;20062;-47
2021/05/20 02:15:54;;;;;;;6.85;5.57;;;;;;;19.69;50.94;98600.25;5063249;28;20032;-46
2021/05/20 02:18:20;;;;;;;6.35;5.30;;;;;;;19.84;50.65;98622.56;5058525;28;20040;-47
2021/05/20 02:20:46;;;;;;;6.93;6.22;;;;;;;19.99;50.32;98624.19;5056799;28;20115;-45
2021/05/20 02:23:14;;;;;;;8.20;5.85;;;;;;;20.15;49.80;98640.03;5065351;28;20055;-48
2021/05/20 02:25:40;;;;;;;6.45;5.85;;;;;;;20.30;49.08;98620.72;5053245;28;20063;-51
2021/05/20 02:28:06;;;;;;;6.10;5.47;;;;;;;20.62;48.71;98618.03;5069341;28;20032;-49
2021/05/20 02:30:32;;;;;;;5.38;4.82;;;;;;;20.88;47.92;98628.97;5058333;28;20037;-51
2021/05/20 02:32:58;;;;;;;5.85;4.75;;;;;;;20.90;47.78;98618.69;5064068;28;20040;-46
2021/05/20 02:35:24;;;;;;;7.35;4.93;;;;;;;21.05;47.64;98616.47;5052707;28;20078;-46
2021/05/20 02:37:50;;;;;;;6.30;4.95;;;;;;;21.09;47.36;98611.41;5064070;28;20398;-48
2021/05/20 02:40:16;;;;;;;8.15;4.55;;;;;;;21.15;47.12;98605.09;5057674;28;20032;-46
2021/05/20 02:42:43;;;;;;;7.82;4.57;;;;;;;21.20;46.44;98612.56;5068083;28;20036;-46
2021/05/20 02:45:11;;;;;;;5.32;4.00;;;;;;;21.19;45.95;98600.03;5069286;28;20153;-54
2021/05/20 02:47:37;;;;;;;5.70;4.78;;;;;;;21.21;45.99;98597.91;5067600;28;20182;-50
2021/05/20 02:50:04;;;;;;;5.80;5.13;;;;;;;21.17;45.91;98610.31;5062376;28;20116;-47
2021/05/20 02:52:30;;;;;;;5.10;4.70;;;;;;;21.09;46.30;98600.53;5059338;28;20035;-52
2021/05/20 02:54:56;;;;;;;5.60;5.10;;;;;;;21.08;46.07;98587.97;5054627;28;20033;-48
2021/05/20 02:57:22;;;;;;;5.88;5.10;;;;;;;21.26;46.09;98606.25;5064352;28;20024;-49
2021/05/20 02:59:48;;;;;;;7.13;5.50;;;;;;;21.43;45.64;98605.66;5054140;28;20043;-51
2021/05/20 03:02:13;;;;;;;6.80;5.03;;;;;;;21.45;45.60;98579.88;5067695;28;20477;-47
2021/05/20 03:04:39;;;;;;;7.53;5.80;;;;;;;21.61;45.22;98593.97;5057024;28;20029;-48
2021/05/20 03:07:06;;;;;;;5.45;4.70;;;;;;;21.68;44.51;98580.28;5064464;28;20029;-50
2021/05/20 03:09:32;;;;;;;6.18;5.57;;;;;;;21.76;44.32;98596.34;5056037;28;20041;-53
2021/05/20 03:11:59;;;;;;;5.10;4.60;;;;;;;21.94;43.76;98607.22;5066402;28;20025;-49
2021/05/20 03:14:25;;;;;;;8.15;5.03;;;;;;;21.97;43.65;98600.47;5062074;28;20445;-50
2021/05/20 03:16:52;;;;;;;5.13;4.47;;;;;;;21.88;43.48;98583.59;5058999;28;20036;-49
2021/05/20 03:19:18;;;;;;;5.00;4.55;;;;;;;21.92;43.82;98570.38;5069204;28;20036;-57
2021/05/20 03:21:43;;;;;;;7.05;4.40;;;;;;;21.89;43.75;98582.53;5056932;28;20032;-50
2021/05/20 03:24:09;;;;;;;7.03;5.20;;;;;;;21.88;43.92;98599.94;5064308;28;20540;-51
2021/05/20 03:26:35;;;;;;;6.65;4.88;;;;;;;22.08;43.30;98618.81;5063806;28;20410;-49
2021/05/20 03:29:01;;;;;;;5.80;5.18;;;;;;;22.15;42.90;98596.06;5057767;28;20423;-48
2021/05/20 03:31:27;;;;;;;6.82;5.13;;;;;;;22.40;42.72;98587.75;5068671;28;20540;-47
2021/05/20 03:33:53;;;;;;;9.90;5.28;;;;;;;22.65;41.85;98573.13;5057763;28;20116;-44
2021/05/20 03:36:19;;;;;;;6.07;5.05;;;;;;;23.20;40.68;98573.91;5062884;28;20068;-53
2021/05/20 03:38:44;;;;;;;6.05;4.85;;;;;;;23.59;40.11;98532.47;5064820;28;20036;-45
2021/05/20 03:41:10;;;;;;;5.70;5.20;;;;;;;23.61;39.47;98506.53;5055824;28;20482;-49
2021/05/20 03:43:36;;;;;;;7.18;5.13;;;;;;;23.81;39.46;98538.09;5065781;28;20079;-45
2021/05/20 03:46:03;;;;;;;5.25;4.75;;;;;;;23.76;39.22;98551.66;5055978;28;20044;-47
2021/05/20 03:48:30;;;;;;;9.40;5.43;;;;;;;23.61;39.34;98542.06;5059345;28;20135;-45
2021/05/20 03:50:58;;;;;;;5.82;4.63;;;;;;;23.47;39.78;98548.88;5063393;28;20036;-46
2021/05/20 03:53:29;;;;;;;7.85;5.20;;;;;;;23.53;39.90;98550.63;5053104;28;20151;-51
2021/05/20 03:55:56;;;;;;;6.20;4.75;;;;;;;23.90;39.09;98550.31;5063625;28;20060;-48
2021/05/20 03:58:22;;;;;;;6.28;4.75;;;;;;;24.01;37.90;98509.50;5059164;28;20024;-51
2021/05/20 04:00:47;;;;;;;5.90;4.75;;;;;;;24.48;37.40;98560.44;5066995;28;20040;-56
2021/05/20 04:03:26;;;;;;;5.00;4.55;;;;;;;24.65;37.54;98571.41;5052032;28;20037;-51
2021/05/20 04:05:53;;;;;;;6.80;5.10;;;;;;;24.49;37.63;98595.75;5056827;28;20036;-49
2021/05/20 04:08:19;;;;;;;7.57;5.30;;;;;;;24.06;38.29;98562.41;5062458;28;20083;-51
2021/05/20 04:10:44;;;;;;;7.22;5.38;;;;;;;23.76;39.14;98557.13;5064119;28;20115;-50
2021/05/20 04:13:10;;;;;;;5.82;5.18;;;;;;;23.42;40.01;98574.16;5055256;28;20048;-48
2021/05/20 04:15:35;;;;;;;5.72;5.10;;;;;;;22.94;41.13;98554.22;5067782;28;20032;-51
2021/05/20 04:18:01;;;;;;;6.85;4.97;;;;;;;22.88;41.46;98568.78;5057674;28;20068;-48
2021/05/20 04:20:26;;;;;;;7.50;5.68;;;;;;;22.82;41.52;98547.91;5060188;28;20033;-48
2021/05/20 04:22:52;;;;;;;6.82;5.15;;;;;;;23.04;41.37;98570.81;5064691;28;20028;-48
2021/05/20 04:25:18;;;;;;;6.40;5.65;;;;;;;23.23;40.62;98540.69;5054402;28;20037;-59
2021/05/20 04:27:44;;;;;;;5.78;5.25;;;;;;;23.87;39.86;98585.50;5067185;28;20021;-48
2021/05/20 04:30:10;;;;;;;9.48;5.28;;;;;;;24.02;39.59;98582.28;5058734;28;20555;-47
2021/05/20 04:32:35;;;;;;;6.05;4.80;;;;;;;24.08;39.06;98575.81;5059287;28;20409;-48
2021/05/20 04:35:01;;;;;;;5.30;4.40;;;;;;;24.03;39.28;98592.97;5054466;28;20039;-49
2021/05/20 04:37:27;;;;;;;4.10;3.80;;;;;;;23.74;39.59;98578.41;5067593;28;20028;-47
2021/05/20 04:39:52;;;;;;;4.63;4.15;;;;;;;23.48;40.45;98575.94;5056191;28;20038;-48
2021/05/20 04:42:18;;;;;;;6.57;4.53;;;;;;;23.35;40.74;98595.31;5061602;28;20110;-52
2021/05/20 04:44:43;;;;;;;6.68;5.15;;;;;;;23.50;40.88;98586.63;5063681;28;20127;-52
2021/05/20 04:47:09;;;;;;;7.63;4.65;;;;;;;23.57;40.42;98584.59;5054576;28;20052;-53
2021/05/20 04:49:34;;;;;;;5.70;4.50;;;;;;;23.42;40.83;98609.66;5067080;28;20032;-47
2021/05/20 04:52:00;;;;;;;12.23;4.75;;;;;;;23.23;41.27;98638.97;5056766;28;20424;-48
2021/05/20 04:54:25;;;;;;;4.47;3.92;;;;;;;23.01;41.37;98612.25;5060662;28;20040;-47
2021/05/20 04:56:51;;;;;;;6.47;3.60;;;;;;;22.88;41.66;98626.09;5064139;28;20039;-48
2021/05/20 04:59:16;;;;;;;5.00;3.63;;;;;;;22.58;42.06;98584.16;5053874;28;20061;-48
2021/05/20 05:01:42;;;;;;;3.97;3.58;;;;;;;22.24;43.02;98594.69;5069455;28;20024;-50
2021/05/20 05:04:07;;;;;;;6.63;3.88;;;;;;;21.77;44.09;98603.44;5063396;28;20037;-49
2021/05/20 05:06:32;;;;;;;4.15;3.75;;;;;;;21.27;45.50;98601.63;5061299;28;20463;-44
2021/05/20 05:08:58;;;;;;;3.75;3.35;;;;;;;21.02;46.18;98600.59;5055270;28;20170;-48
2021/05/20 05:11:23;;;;;;;4.13;3.10;;;;;;;20.79;46.88;98610.19;5066582;28;20446;-45
2021/05/20 05:13:49;;;;;;;3.67;3.15;;;;;;;20.56;47.29;98590.88;5055235;28;20037;-50
2021/05/20 05:16:14;;;;;;;5.40;3.55;;;;;;;20.50;47.74;98606.19;5061706;28;20036;-50
2021/05/20 05:18:40;;;;;;;4.07;3.67;;;;;;;20.40;48.28;98614.00;5061813;28;20044;-48
2021/05/20 05:21:05;;;;;;;5.78;4.10;;;;;;;19.98;48.86;98589.94;5054401;28;20120;-45
2021/05/20 05:23:32;;;;;;;6.45;4.03;;;;;;;19.56;49.17;98561.25;5066553;28;20051;-47
2021/05/20 05:25:57;;;;;;;4.95;3.95;;;;;;;19.92;49.84;98618.81;5056078;28;20024;-53
2021/05/20 05:28:23;;;;;;;5.20;3.90;;;;;;;19.85;49.90;98617.94;5060327;28;20094;-52
2021/05/20 05:30:48;;;;;;;6.63;3.50;;;;;;;19.91;49.49;98609.81;5063091;28;20036;-48
2021/05/20 05:33:14;;;;;;;6.55;4.10;;;;;;;20.00;49.31;98598.69;5054197;28;20546;-53
2021/05/20 05:35:40;;;;;;;9.10;4.07;;;;;;;20.20;49.20;98596.72;5066168;28;20091;-50
2021/05/20 05:38:05;;;;;;;6.13;3.70;;;;;;;20.39;48.80;98602.28;5056745;28;20040;-52
2021/05/20 05:40:31;;;;;;;5.47;3.45;;;;;;;20.39;48.44;98598.72;5058659;28;20487;-54
2021/05/20 05:42:56;;;;;;;5.53;3.15;;;;;;;20.51;47.29;98611.41;5064411;28;20512;-47
2021/05/20 05:45:22;;;;;;;4.18;2.83;;;;;;;20.42;47.33;98618.13;5052823;28;20033;-52
2021/05/20 05:47:48;;;;;;;4.57;2.80;;;;;;;20.33;47.32;98614.84;5065008;28;20076;-56
2021/05/20 05:50:14;;;;;;;5.57;2.92;;;;;;;20.10;47.33;98593.66;5058097;28;20036;-49
2021/05/20 05:52:40;;;;;;;4.70;3.00;;;;;;;19.92;47.47;98581.59;5057106;28;20411;-49
2021/05/20 05:55:07;;;;;;;3.42;2.95;;;;;;;20.11;47.61;98608.91;5064839;28;20034;-48
2021/05/20 05:57:33;;;;;;;3.78;2.80;;;;;;;20.82;45.95;98599.94;5052897;28;20037;-50
2021/05/20 05:59:58;;;;;;;4.90;3.22;;;;;;;22.01;43.13;98582.59;5062143;28;20082;-50
2021/05/20 06:02:25;;;;;;;3.70;2.92;;;;;;;22.32;42.07;98599.81;5058713;28;20401;-48
2021/05/20 06:04:51;;;;;;;4.25;2.55;;;;;;;22.22;42.00;98589.47;5054147;28;20516;-49
2021/05/20 06:07:17;;;;;;;5.03;3.00;;;;;;;22.01;42.05;98585.31;5048329;28;20124;-55
2021/05/20 06:09:43;;;;;;;4.68;2.80;;;;;;;21.97;42.41;98595.03;5064432;28;20033;-50
2021/05/20 06:12:09;;;;;;;4.93;2.92;;;;;;;22.04;41.97;98624.94;5056884;28;20036;-46
2021/05/20 06:14:37;;;;;;;5.53;3.20;;;;;;;22.20;41.63;98620.75;5057962;28;20090;-50
2021/05/20 06:17:03;;;;;;;4.93;3.03;;;;;;;22.17;41.41;98643.81;5064434;28;20043;-45
2021/05/20 06:19:28;;;;;;;5.60;3.13;;;;;;;21.87;41.58;98622.81;5052859;28;20469;-48
2021/05/20 06:21:54;;;;;;;7.28;3.58;;;;;;;21.62;42.46;98661.00;5063649;28;20522;-51
2021/05/20 06:24:19;;;;;;;4.70;3.55;;;;;;;21.23;42.98;98602.06;5058551;28;20028;-51
2021/05/20 06:26:45;;;;;;;4.28;3.63;;;;;;;21.11;43.63;98627.53;5056664;28;20041;-46
2021/05/20 06:29:10;;;;;;;8.10;4.18;;;;;;;20.91;44.35;98647.56;5064476;28;20036;-45
2021/05/20 06:31:36;;;;;;;5.22;3.42;;;;;;;20.60;44.87;98657.38;5052456;28;20028;-46
2021/05/20 06:34:01;;;;;;;4.00;3.33;;;;;;;20.41;45.68;98640.13;5060251;28;20063;-51
2021/05/20 06:36:27;;;;;;;5.28;3.30;;;;;;;20.21;45.70;98650.03;5056729;28;20052;-50
2021/05/20 06:38:52;;;;;;;9.23;3.92;;;;;;;20.23;46.33;98647.91;5055050;28;20611;-50
2021/05/20 06:41:19;;;;;;;5.43;3.65;;;;;;;20.21;46.74;98677.19;5065430;28;20111;-54
2021/05/20 06:43:45;;;;;;;5.85;3.60;;;;;;;19.89;47.74;98651.78;5056744;28;20068;-48
2021/05/20 06:46:11;;;;;;;7.63;3.50;;;;;;;19.65;48.52;98637.84;5064398;28;20090;-48
2021/05/20 06:48:36;;;;;;;5.95;4.00;;;;;;;19.40;49.41;98610.56;5052426;28;20063;-48
2021/05/20 06:51:03;;;;;;;4.72;3.83;;;;;;;19.40;50.28;98618.69;5067373;28;20486;-49
2021/05/20 06:53:31;;;;;;;7.38;4.25;;;;;;;19.34;51.39;98601.38;5055945;28;20123;-45
2021/05/20 06:55:59;;;;;;;5.15;4.60;;;;;;;19.21;51.93;98547.97;5066599;28;20037;-47
2021/05/20 07:01:10;;;;;;;6.55;4.68;;;;;;;19.81;51.27;98587.69;5055848;28;20380;-52
2021/05/20 07:03:35;;;;;;;5.82;4.55;;;;;;;19.99;50.80;98594.31;5068740;28;20120;-45
2021/05/20 07:06:01;;;;;;;7.45;4.45;;;;;;;20.42;49.68;98599.09;5058842;28;20448;-51
2021/05/20 07:08:26;;;;;;;6.75;4.85;;;;;;;20.76;49.60;98593.44;5064825;28;20072;-48
2021/05/20 07:10:56;;;;;;;5.70;4.78;;;;;;;20.94;49.02;98609.03;5060197;28;20060;-51
2021/05/20 07:13:23;;;;;;;11.95;5.85;;;;;;;21.00;48.86;98621.75;5059566;28;20090;-50
2021/05/20 07:15:50;;;;;;;6.93;5.05;;;;;;;20.78;49.18;98632.97;5060444;28;20170;-47
2021/05/20 07:18:16;;;;;;;6.82;5.40;;;;;;;20.67;49.03;98620.06;5059920;28;20112;-49
2021/05/20 07:20:43;;;;;;;6.65;5.10;;;;;;;20.36;49.08;98578.25;5058780;28;20146;-52
2021/05/20 07:23:13;;;;;;;8.27;4.97;;;;;;;20.87;48.49;98622.69;5061776;28;20090;-49
2021/05/20 07:25:39;;;;;;;5.28;4.50;;;;;;;20.93;47.81;98624.53;5065105;28;20037;-47
2021/05/20 07:28:05;;;;;;;5.97;5.38;;;;;;;21.17;47.62;98629.34;5059010;28;20096;-47
2021/05/20 07:30:31;;;;;;;9.18;5.28;;;;;;;21.26;47.28;98633.47;5061200;28;20530;-48
2021/05/20 07:32:56;;;;;;;8.25;5.63;;;;;;;21.08;47.09;98567.06;5065489;28;20032;-47
2021/05/20 07:35:22;;;;;;;9.10;5.20;;;;;;;21.49;46.79;98615.66;5070172;28;20029;-49
2021/05/20 07:37:48;;;;;;;7.38;5.80;;;;;;;21.70;46.17;98625.31;5070812;28;20433;-48
2021/05/20 07:40:14;;;;;;;6.20;5.55;;;;;;;21.97;45.14;98627.72;5072305;28;20040;-49
2021/05/20 07:42:40;;;;;;;8.13;5.88;;;;;;;22.01;45.03;98612.59;5060083;28;20388;-47
2021/05/20 07:45:07;;;;;;;8.20;6.55;;;;;;;22.64;44.18;98615.97;5067161;28;20106;-49
2021/05/20 07:47:32;;;;;;;10.02;6.20;;;;;;;22.61;43.94;98618.31;5055098;28;20386;-50
2021/05/20 07:49:58;;;;;;;10.80;6.25;;;;;;;22.35;44.40;98642.13;5064949;28;20041;-51
2021/05/20 07:52:23;;;;;;;9.85;6.38;;;;;;;21.96;44.86;98622.53;5060926;28;20040;-45
2021/05/20 07:54:49;;;;;;;14.00;5.75;;;;;;;21.82;45.53;98611.78;5057049;28;20033;-55
2021/05/20 07:57:16;;;;;;;9.60;5.82;;;;;;;22.58;44.38;98607.88;5067834;28;20456;-48
2021/05/20 07:59:41;;;;;;;10.52;6.07;;;;;;;23.13;43.07;98604.06;5050536;28;20544;-56
2021/05/20 08:02:17;;;;;;;11.50;6.28;;;;;;;23.36;42.71;98597.78;5056021;28;20035;-50
2021/05/20 08:04:44;;;;;;;8.98;5.70;;;;;;;23.37;41.70;98607.66;5058888;28;20509;-51
2021/05/20 08:07:23;;;;;;;6.80;5.65;;;;;;;23.19;41.71;98626.88;5050961;28;20133;-50
2021/05/20 08:10:01;;;;;;;9.38;5.43;;;;;;;22.87;42.06;98597.13;5054338;28;20167;-48
2021/05/20 08:12:29;;;;;;;9.32;4.65;;;;;;;23.37;40.95;98580.34;5050464;28;20037;-50
2021/05/20 08:14:54;;;;;;;10.52;5.00;;;;;;;24.68;38.45;98611.94;5064726;28;20052;-53
2021/05/20 08:17:20;;;;;;;7.35;4.75;;;;;;;24.96;37.98;98620.38;5054207;28;20120;-50
2021/05/20 08:19:45;;;;;;;7.93;4.90;;;;;;;24.32;38.78;98616.75;5066691;28;20078;-53
2021/05/20 08:22:11;;;;;;;9.38;5.32;;;;;;;23.87;39.68;98618.28;5057393;28;20043;-49
2021/05/20 08:24:36;;;;;;;10.18;5.45;;;;;;;23.14;40.79;98607.59;5059260;28;20474;-50
2021/05/20 08:27:02;;;;;;;11.68;5.40;;;;;;;22.85;41.75;98634.75;5065591;28;20036;-50
2021/05/20 08:29:29;;;;;;;9.02;5.65;;;;;;;22.55;42.67;98586.53;5054169;28;20502;-48
2021/05/20 08:31:54;;;;;;;10.63;6.60;;;;;;;22.37;43.13;98607.28;5064574;28;20029;-46
2021/05/20 08:34:20;;;;;;;13.00;6.45;;;;;;;22.21;43.51;98587.81;5050502;28;20124;-51
2021/05/20 08:36:45;;;;;;;12.48;6.50;;;;;;;22.14;43.89;98578.88;5062289;28;20098;-50
2021/05/20 08:39:11;;;;;;;12.05;5.78;;;;;;;22.04;44.57;98600.41;5054453;28;20491;-52
2021/05/20 08:41:37;;;;;;;10.98;6.82;;;;;;;21.95;44.40;98602.59;5067028;28;20072;-50
2021/05/20 08:44:13;;;;;;;9.65;6.40;;;;;;;22.02;44.76;98619.69;5056806;28;20044;-51
2021/05/20 08:46:39;;;;;;;10.50;6.10;;;;;;;22.06;43.73;98614.63;5058468;28;20078;-45
2021/05/20 08:49:15;;;;;;;7.55;5.45;;;;;;;21.99;43.66;98624.78;5065421;28;20036;-47
2021/05/20 08:51:42;;;;;;;10.43;6.30;;;;;;;22.45;42.51;98636.97;5054237;28;20194;-49
2021/05/20 08:54:08;;;;;;;11.23;6.40;;;;;;;22.76;41.91;98624.19;5070395;28;20141;-52
2021/05/20 08:56:33;;;;;;;8.63;6.07;;;;;;;23.07;40.95;98584.00;5059128;28;20519;-49
2021/05/20 08:58:59;;;;;;;7.90;6.32;;;;;;;23.52;40.08;98620.00;5062877;28;20036;-51
2021/05/20 09:01:39;;;;;;;9.07;6.30;;;;;;;23.86;39.66;98652.97;5052490;28;20040;-52
2021/05/20 09:04:06;;;;;;;8.32;6.45;;;;;;;23.90;39.51;98632.31;5062333;28;20033;-49
2021/05/20 09:06:59;;;;;;;14.57;6.93;;;;;;;24.03;39.62;98638.59;5060310;28;20476;-52
2021/05/20 09:09:30;;;;;;;9.60;6.70;;;;;;;23.68;40.29;98644.94;5053457;28;20074;-48
2021/05/20 09:11:58;;;;;;;9.40;5.38;;;;;;;23.18;40.31;98639.66;5063938;28;20039;-48
2021/05/20 09:14:33;;;;;;;7.03;5.75;;;;;;;22.85;40.90;98623.84;5059537;28;20071;-51
2021/05/20 09:17:12;;;;;;;9.15;6.07;;;;;;;22.71;41.92;98617.75;5055203;28;20552;-57
2021/05/20 09:19:38;;;;;;;11.75;6.80;;;;;;;22.31;42.65;98557.28;5066453;28;20029;-53
2021/05/20 09:22:09;;;;;;;9.23;7.20;;;;;;;22.55;43.37;98628.28;5056997;28;20060;-52
2021/05/20 09:24:51;;;;;;;8.40;6.38;;;;;;;22.47;43.27;98626.72;5058607;28;20048;-50
2021/05/20 09:27:23;;;;;;;13.02;7.20;;;;;;;22.40;43.98;98636.81;5066937;28;20040;-47
2021/05/20 09:30:09;;;;;;;8.85;6.85;;;;;;;22.35;43.75;98647.59;5054143;28;20025;-55
2021/05/20 09:32:35;;;;;;;;;;;;;;;22.57;42.92;98658.03;5058505;28;20056;-53
2021/05/20 09:35:01;;;;;;;;;;;;;;;22.33;43.20;98641.53;5065056;28;19992;-58
2021/05/20 09:37:28;;;;;;;10.65;7.40;;;;;;;21.70;45.17;98638.94;5053210;28;19917;-54
2021/05/20 09:40:01;;;;;;;10.82;7.03;;;;;;;21.55;45.52;98647.44;5062142;28;20506;-51
2021/05/20 09:42:31;;;;;;;10.32;6.90;;;;;;;21.44;46.08;98648.16;5059720;28;20563;-46
2021/05/20 09:45:10;;;;;;;8.98;7.35;;;;;;;21.67;45.71;98647.56;5055239;28;20052;-45
2021/05/20 09:47:36;;;;;;;10.38;7.32;;;;;;;21.96;45.16;98641.59;5060209;28;20390;-48
2021/05/20 09:50:07;;;;;;;12.93;6.85;;;;;;;22.54;43.94;98650.31;5051070;28;20090;-51
2021/05/20 09:52:33;;;;;;;12.73;6.57;;;;;;;23.05;42.15;98627.06;5066261;28;20036;-51
2021/05/20 09:54:59;;;;;;;10.88;6.57;;;;;;;23.35;41.45;98623.44;5054841;28;20064;-49
2021/05/20 09:57:34;;;;;;;12.30;7.00;;;;;;;23.38;41.63;98633.06;5065485;28;20032;-46
2021/05/20 10:00:12;;;;;;;11.25;7.22;;;;;;;22.94;42.31;98636.09;5048937;28;20066;-54
2021/05/20 10:02:39;;;;;;;9.77;8.73;;;;;;;22.72;43.34;98658.47;5048148;28;20414;-48
2021/05/20 10:05:39;;;;;;;11.70;8.70;;;;;;;22.17;45.07;98649.28;5061208;28;20123;-48
2021/05/20 10:08:07;;;;;;;10.68;8.73;;;;;;;21.60;46.50;98647.59;5055749;28;20390;-49
2021/05/20 10:10:35;;;;;;;12.60;8.98;;;;;;;21.10;47.31;98639.47;5058072;28;20516;-54
2021/05/20 10:13:04;;;;;;;12.00;8.98;;;;;;;20.96;48.29;98639.56;5063465;28;20037;-47
2021/05/20 10:15:31;;;;;;;10.50;9.18;;;;;;;20.63;49.00;98635.16;5052318;28;20122;-48
2021/05/20 10:17:57;;;;;;;11.20;8.75;;;;;;;20.54;49.02;98631.88;5059608;28;20031;-50
2021/05/20 10:20:24;;;;;;;7.88;7.18;;;;;;;20.71;48.74;98632.19;5063022;28;20355;-52
2021/05/20 10:22:50;;;;;;;10.32;7.80;;;;;;;21.55;47.07;98644.72;5065742;28;20028;-50
2021/05/20 10:25:18;;;;;;;13.27;10.07;;;;;;;22.15;45.35;98626.06;5055134;28;20037;-59
2021/05/20 10:27:45;;;;;;;9.52;8.60;;;;;;;22.38;44.83;98628.03;5069427;28;20036;-55
2021/05/20 10:30:14;;;;;;;11.43;8.52;;;;;;;22.94;43.72;98647.00;5060593;28;20047;-50
2021/05/20 10:32:41;;;;;;;12.25;7.85;;;;;;;23.09;42.73;98639.19;5061079;28;20083;-49
2021/05/20 10:35:06;;;;;;;9.18;6.38;;;;;;;23.20;41.30;98625.78;5068552;28;20040;-49
2021/05/20 10:37:37;;;;;;;9.38;6.40;;;;;;;22.99;40.57;98608.91;5056084;28;20378;-50
2021/05/20 10:40:08;;;;;;;6.80;5.65;;;;;;;23.14;40.22;98635.75;5066158;28;20433;-52
2021/05/20 10:42:39;;;;;;;8.65;5.65;;;;;;;23.18;39.41;98623.28;5064118;28;20060;-48
2021/05/20 10:45:18;;;;;;;6.32;4.65;;;;;;;23.02;39.40;98608.44;5057443;28;20098;-49
2021/05/20 10:48:02;;;;;;;6.35;4.13;;;;;;;22.96;38.70;98614.00;5061241;28;20025;-54
2021/05/20 10:50:53;;;;;;;9.95;3.90;;;;;;;22.73;38.93;98610.16;5052565;28;20043;-47
2021/05/20 10:53:37;;;;;;;7.80;4.57;;;;;;;22.66;38.99;98612.97;5062316;28;20147;-60
2021/05/20 10:56:26;;;;;;;6.32;4.25;;;;;;;22.61;38.84;98621.03;5065279;28;20044;-52
2021/05/20 10:58:52;;;;;;;6.65;4.07;;;;;;;22.37;39.26;98585.47;5064214;28;20474;-50
2021/05/20 11:01:21;;;;;;;6.75;4.25;;;;;;;22.15;40.33;98591.44;5055687;28;20079;-49
2021/05/20 11:03:46;;;;;;;8.13;4.47;;;;;;;22.17;40.17;98602.13;5055400;28;20091;-50
2021/05/20 11:06:13;;;;;;;8.05;4.65;;;;;;;22.36;39.61;98578.38;5072547;28;20032;-51
2021/05/20 11:08:38;;;;;;;9.70;4.40;;;;;;;22.62;38.82;98590.81;5060924;28;20473;-47
2021/05/20 11:11:04;;;;;;;5.78;4.15;;;;;;;22.76;38.38;98596.03;5054860;28;20132;-61
2021/05/20 11:13:42;;;;;;;6.72;3.22;;;;;;;22.74;37.67;98577.19;5067871;28;20042;-47
2021/05/20 11:16:15;;;;;;;5.22;3.88;;;;;;;22.76;38.15;98577.78;5064768;28;20041;-54
2021/05/20 11:18:43;;;;;;;7.60;4.05;;;;;;;22.73;38.15;98570.09;5066477;28;20043;-52
2021/05/20 11:21:08;;;;;;;7.90;4.25;;;;;;;22.62;38.44;98566.25;5066744;28;20040;-61
2021/05/20 11:23:38;;;;;;;10.10;4.88;;;;;;;22.53;38.68;98558.66;5054971;28;20466;-54
2021/05/20 11:26:11;;;;;;;9.77;4.75;;;;;;;22.48;38.78;98559.34;5065279;28;20033;-47
2021/05/20 11:28:50;;;;;;;8.10;4.50;;;;;;;22.57;38.24;98546.19;5060951;28;20088;-51
2021/05/20 11:31:17;;;;;;;8.30;4.47;;;;;;;22.76;38.46;98542.31;5054247;28;20044;-49
2021/05/20 11:36:14;;;;;;;7.13;4.78;;;;;;;22.57;38.12;98448.88;5061077;28;20066;-50
2021/05/20 11:38:59;;;;;;;9.05;4.20;;;;;;;23.32;37.41;98502.94;5065754;28;20526;-47